Time;durP1;ratioP1;P1;durP2;ratioP2;P2;SDS_P1;SDS_P2;PMS_P1;PMS_P2;Temp;Humidity;BMP_temperature;BMP_pressure;BME280_temperature;BME280_humidity;BME280_pressure;Samples;Min_cycle;Max_cycle;Signal;HPM_P1;HPM_P2
2023/04/14 00:02:02;;;;;;;6.53;5.07;;;3.40;99.90;;;;;;5036833;28;20572;-72
2023/04/14 00:04:28;;;;;;;6.03;4.60;;;3.50;99.90;;;;;;5035218;28;20171;-72
2023/04/14 00:06:57;;;;;;;4.67;3.90;;;3.60;99.90;;;;;;5035442;28;20217;-72
2023/04/14 00:09:23;;;;;;;4.10;3.53;;;3.60;99.90;;;;;;5035599;28;20172;-72
2023/04/14 00:11:49;;;;;;;5.03;3.70;;;3.80;99.90;;;;;;5035388;28;20263;-72
2023/04/14 00:14:15;;;;;;;3.97;3.50;;;3.80;99.90;;;;;;5035276;28;20253;-72
2023/04/14 00:16:41;;;;;;;3.77;3.30;;;3.90;99.90;;;;;;5036284;28;20222;-72
2023/04/14 00:19:07;;;;;;;3.70;3.40;;;4.00;99.90;;;;;;5035018;28;20592;-72
2023/04/14 00:21:33;;;;;;;21.60;5.20;;;4.10;99.90;;;;;;5035243;28;20190;-72
2023/04/14 00:23:58;;;;;;;18.00;5.83;;;4.10;99.90;;;;;;5035192;28;20179;-72
2023/04/14 00:26:24;;;;;;;49.50;6.20;;;4.00;99.90;;;;;;5034752;28;20218;-72
2023/04/14 00:28:49;;;;;;;6.70;5.63;;;3.90;99.90;;;;;;5034966;28;20186;-72
2023/04/14 00:31:15;;;;;;;10.33;5.53;;;3.90;99.90;;;;;;5035059;28;20198;-72
2023/04/14 00:33:40;;;;;;;30.50;6.27;;;3.80;99.90;;;;;;5034724;28;20175;-72
2023/04/14 00:36:06;;;;;;;136.10;9.33;;;3.80;99.90;;;;;;5034658;28;20211;-72
2023/04/14 00:38:32;;;;;;;72.73;7.13;;;3.60;99.90;;;;;;5034638;28;20189;-72
2023/04/14 00:40:57;;;;;;;81.40;7.40;;;3.50;99.90;;;;;;5034545;28;20183;-72
2023/04/14 00:43:23;;;;;;;13.97;6.57;;;3.60;99.90;;;;;;5035780;28;20245;-72
2023/04/14 00:45:50;;;;;;;14.83;6.33;;;3.60;99.90;;;;;;5035446;28;20271;-72
2023/04/14 00:48:16;;;;;;;7.33;5.37;;;3.50;99.90;;;;;;5034432;28;20179;-72
2023/04/14 00:50:43;;;;;;;12.20;5.50;;;3.60;99.90;;;;;;5034685;28;20179;-72
2023/04/14 00:53:09;;;;;;;4.27;3.93;;;3.60;99.90;;;;;;5034368;28;20209;-72
2023/04/14 00:55:35;;;;;;;3.70;3.40;;;3.70;99.90;;;;;;5035474;28;20206;-72
2023/04/14 00:58:02;;;;;;;5.10;3.67;;;3.80;99.90;;;;;;5035163;28;20193;-72
2023/04/14 01:25:33;;;;;;;7.73;4.37;;;3.70;99.90;;;;;;4918859;29;20697;-73
2023/04/14 02:27:21;;;;;;;5.00;3.70;;;4.20;99.90;;;;;;4896856;23;20232;-85
2023/04/14 02:29:53;;;;;;;4.10;3.70;;;4.30;99.90;;;;;;4906322;29;20258;-85
2023/04/14 02:32:23;;;;;;;5.27;4.20;;;4.30;99.90;;;;;;4901164;29;20175;-87
2023/04/14 02:35:15;;;;;;;4.53;4.13;;;4.20;99.90;;;;;;4901023;29;20235;-89
2023/04/14 02:37:47;;;;;;;4.40;4.00;;;4.20;99.90;;;;;;4900879;29;20182;-89
2023/04/14 02:40:24;;;;;;;4.60;4.20;;;4.20;99.90;;;;;;4901278;29;20287;-89
2023/04/14 02:42:55;;;;;;;4.87;4.10;;;4.10;99.90;;;;;;4901408;29;20195;-89
2023/04/14 02:45:25;;;;;;;4.50;4.10;;;4.20;99.90;;;;;;4900723;29;20586;-89
2023/04/14 02:47:55;;;;;;;6.00;4.00;;;4.20;99.90;;;;;;4900738;29;20186;-89
2023/04/14 02:50:22;;;;;;;4.60;4.20;;;4.10;99.90;;;;;;4900418;29;20167;-89
2023/04/14 02:52:51;;;;;;;7.30;4.07;;;4.20;99.90;;;;;;4900426;29;20260;-89
2023/04/14 02:55:18;;;;;;;4.20;3.90;;;4.20;99.90;;;;;;4900647;29;20189;-90
2023/04/14 02:57:47;;;;;;;4.30;4.00;;;4.20;99.90;;;;;;4901289;29;20186;-89
2023/04/14 03:00:14;;;;;;;4.27;3.97;;;4.30;99.90;;;;;;4900474;29;20183;-89
2023/04/14 03:02:41;;;;;;;4.70;4.00;;;4.30;99.90;;;;;;4901059;29;20226;-89
2023/04/14 03:05:08;;;;;;;4.23;3.93;;;4.20;99.90;;;;;;4900360;29;20210;-89
2023/04/14 03:07:35;;;;;;;4.13;3.83;;;4.20;99.90;;;;;;4900509;29;20185;-88
2023/04/14 03:10:01;;;;;;;4.70;4.30;;;4.20;99.90;;;;;;4900720;29;20222;-87
2023/04/14 03:12:28;;;;;;;4.17;3.77;;;4.30;99.90;;;;;;4920039;29;20218;-87
2023/04/14 03:14:54;;;;;;;6.20;5.60;;;4.20;99.90;;;;;;4904512;29;20181;-87
2023/04/14 03:17:21;;;;;;;10.03;9.23;;;4.20;99.90;;;;;;4921398;29;20258;-88
2023/04/14 03:19:50;;;;;;;22.60;20.60;;;4.00;99.90;;;;;;4904122;29;20186;-87
2023/04/14 03:22:18;;;;;;;8.60;7.83;;;4.10;99.90;;;;;;4904060;29;20201;-87
2023/04/14 03:24:45;;;;;;;6.10;5.60;;;4.10;99.90;;;;;;4904183;29;20190;-87
2023/04/14 03:27:17;;;;;;;5.20;4.73;;;4.10;99.90;;;;;;4903886;29;20326;-87
2023/04/14 03:29:46;;;;;;;4.90;4.50;;;4.00;99.90;;;;;;4903934;29;20179;-87
2023/04/14 03:32:13;;;;;;;6.40;4.17;;;4.10;99.90;;;;;;4903719;29;20312;-87
2023/04/14 03:34:45;;;;;;;4.43;4.13;;;4.00;99.90;;;;;;4920710;29;20185;-87
2023/04/14 03:37:15;;;;;;;5.53;5.03;;;4.00;99.90;;;;;;4903822;29;20183;-87
2023/04/14 03:39:42;;;;;;;4.80;4.40;;;3.90;99.90;;;;;;4904209;29;20179;-87
2023/04/14 03:42:10;;;;;;;5.43;4.50;;;4.00;99.90;;;;;;4920623;29;20171;-87
2023/04/14 03:44:38;;;;;;;4.87;4.47;;;4.00;99.90;;;;;;4903906;29;20190;-87
2023/04/14 03:47:06;;;;;;;9.07;5.33;;;4.10;99.90;;;;;;4903870;29;20670;-87
2023/04/14 03:49:37;;;;;;;4.97;4.57;;;4.00;99.90;;;;;;4920614;29;20179;-87
2023/04/14 03:52:06;;;;;;;5.10;4.70;;;4.00;99.90;;;;;;4904187;29;20163;-87
2023/04/14 03:54:33;;;;;;;5.00;4.60;;;4.10;99.90;;;;;;4920532;29;20202;-87
2023/04/14 03:57:03;;;;;;;5.43;4.93;;;4.10;99.90;;;;;;4921163;29;20237;-87
2023/04/14 03:59:30;;;;;;;4.73;4.37;;;4.10;99.90;;;;;;4920588;29;20187;-87
2023/04/14 04:01:56;;;;;;;5.07;4.43;;;4.20;99.90;;;;;;4903212;29;20182;-87
2023/04/14 04:04:25;;;;;;;4.90;4.50;;;4.00;99.90;;;;;;4903460;29;20199;-87
2023/04/14 04:06:52;;;;;;;6.40;4.97;;;4.00;99.90;;;;;;4920023;29;20258;-87
2023/04/14 04:09:21;;;;;;;5.00;4.60;;;3.90;99.90;;;;;;4903085;29;20209;-87
2023/04/14 04:11:48;;;;;;;5.67;4.33;;;3.90;99.90;;;;;;4903439;29;20606;-87
2023/04/14 04:14:16;;;;;;;6.93;5.10;;;3.90;99.90;;;;;;4903466;29;20203;-87
2023/04/14 04:16:42;;;;;;;5.73;5.23;;;3.80;99.90;;;;;;4920006;29;20536;-87
2023/04/14 04:19:09;;;;;;;5.57;5.07;;;3.80;99.90;;;;;;4902949;29;20202;-87
2023/04/14 04:21:39;;;;;;;5.67;4.43;;;3.80;99.90;;;;;;4903738;29;20639;-87
2023/04/14 04:24:06;;;;;;;7.63;4.73;;;3.90;99.90;;;;;;4919343;29;20214;-87
2023/04/14 04:26:34;;;;;;;4.90;4.50;;;3.90;99.90;;;;;;4902564;29;20219;-87
2023/04/14 04:29:02;;;;;;;6.53;4.80;;;3.90;99.90;;;;;;4920024;29;20186;-87
2023/04/14 04:31:28;;;;;;;7.63;4.87;;;4.00;99.90;;;;;;4902891;29;20183;-87
2023/04/14 04:33:56;;;;;;;6.20;4.43;;;4.00;99.90;;;;;;4902974;29;20206;-87
2023/04/14 04:36:22;;;;;;;8.27;5.07;;;4.00;99.90;;;;;;4919892;29;20250;-88
2023/04/14 04:38:49;;;;;;;5.40;4.90;;;3.90;99.90;;;;;;4902670;29;20205;-87
2023/04/14 04:41:25;;;;;;;4.93;4.53;;;3.80;99.90;;;;;;4902465;29;20183;-87
2023/04/14 04:43:51;;;;;;;5.40;4.60;;;3.80;99.90;;;;;;4902731;29;20301;-87
2023/04/14 04:46:41;;;;;;;8.00;4.60;;;3.90;99.90;;;;;;4902382;29;20289;-87
2023/04/14 04:49:06;;;;;;;5.10;4.60;;;4.00;99.90;;;;;;4903561;29;20253;-86
2023/04/14 04:51:32;;;;;;;6.63;4.20;;;4.00;99.90;;;;;;4903630;29;20207;-87
2023/04/14 04:53:58;;;;;;;5.20;4.00;;;4.00;99.90;;;;;;4902277;29;20202;-86
2023/04/14 04:56:26;;;;;;;4.03;3.73;;;4.00;99.90;;;;;;4902995;29;20234;-87
2023/04/14 04:58:51;;;;;;;7.27;4.20;;;4.10;99.90;;;;;;4903326;29;20638;-87
2023/04/14 05:01:20;;;;;;;4.97;4.47;;;4.00;99.90;;;;;;4903178;29;20190;-87
2023/04/14 05:03:46;;;;;;;5.67;4.37;;;4.00;99.90;;;;;;4902533;29;20206;-87
2023/04/14 05:06:12;;;;;;;4.33;3.93;;;3.90;99.90;;;;;;4902227;29;20213;-86
2023/04/14 05:08:38;;;;;;;4.27;3.97;;;4.00;99.90;;;;;;4902899;29;20179;-87
2023/04/14 05:11:04;;;;;;;7.13;5.87;;;4.00;99.90;;;;;;4902120;29;20202;-87
2023/04/14 05:13:31;;;;;;;6.73;5.27;;;4.00;99.90;;;;;;4919346;29;20202;-87
2023/04/14 05:16:04;;;;;;;7.73;5.57;;;4.10;99.90;;;;;;4902841;29;20194;-87
2023/04/14 05:18:30;;;;;;;6.00;5.40;;;4.00;99.90;;;;;;4901898;29;20278;-87
2023/04/14 05:21:04;;;;;;;5.83;5.33;;;4.00;99.90;;;;;;4901918;29;20262;-87
2023/04/14 05:23:35;;;;;;;7.60;4.73;;;4.10;99.90;;;;;;4902479;29;20229;-87
2023/04/14 05:26:02;;;;;;;6.10;4.33;;;4.20;99.90;;;;;;4902052;29;20218;-87
2023/04/14 05:28:28;;;;;;;5.93;5.27;;;4.20;99.90;;;;;;4902599;29;20183;-87
2023/04/14 05:30:54;;;;;;;5.17;4.77;;;4.20;99.90;;;;;;4918934;29;20242;-87
2023/04/14 05:33:20;;;;;;;5.17;4.67;;;4.20;99.90;;;;;;4901873;29;20206;-87
2023/04/14 05:35:46;;;;;;;5.70;4.93;;;4.10;99.90;;;;;;4901399;29;20178;-87
2023/04/14 05:38:15;;;;;;;4.80;4.30;;;4.10;99.90;;;;;;4901738;29;20254;-87
2023/04/14 05:40:41;;;;;;;5.17;4.67;;;4.20;99.90;;;;;;4902477;29;20289;-87
2023/04/14 05:43:07;;;;;;;5.13;4.73;;;4.30;99.90;;;;;;4901850;29;20207;-87
2023/04/14 05:45:33;;;;;;;4.40;4.00;;;4.20;99.90;;;;;;4902296;29;20203;-87
2023/04/14 05:47:59;;;;;;;4.70;4.30;;;4.20;99.90;;;;;;4901474;29;20190;-87
2023/04/14 05:50:24;;;;;;;7.57;4.60;;;4.20;99.90;;;;;;4901840;29;20234;-87
2023/04/14 05:52:50;;;;;;;4.63;4.17;;;4.30;99.90;;;;;;4901234;29;20212;-87
2023/04/14 05:55:17;;;;;;;6.43;4.53;;;4.40;99.90;;;;;;4901408;29;20183;-87
2023/04/14 05:57:43;;;;;;;4.40;3.83;;;4.40;99.90;;;;;;4901784;29;20215;-87
2023/04/14 06:00:12;;;;;;;4.30;3.90;;;4.40;99.90;;;;;;4901327;29;20213;-87
2023/04/14 06:02:38;;;;;;;5.00;4.50;;;4.20;99.90;;;;;;4905720;29;20206;-86
2023/04/14 06:05:06;;;;;;;5.50;4.83;;;4.20;99.90;;;;;;4905884;29;20265;-85
2023/04/14 06:07:32;;;;;;;5.77;4.93;;;4.10;99.90;;;;;;4903102;29;20184;-86
2023/04/14 06:09:59;;;;;;;5.03;4.53;;;4.00;99.90;;;;;;4886269;29;20186;-87
2023/04/14 06:12:27;;;;;;;4.17;3.77;;;4.20;99.90;;;;;;4889106;29;20195;-87
2023/04/14 06:15:02;;;;;;;5.17;4.10;;;4.20;99.90;;;;;;4903553;29;20164;-86
2023/04/14 06:17:28;;;;;;;4.40;4.00;;;4.20;99.90;;;;;;4887153;29;20199;-86
2023/04/14 06:19:53;;;;;;;4.40;3.87;;;4.30;99.90;;;;;;4887166;29;20184;-86
2023/04/14 06:22:19;;;;;;;6.57;4.07;;;4.40;99.90;;;;;;4886352;29;20344;-88
2023/04/14 06:24:45;;;;;;;6.07;4.60;;;4.40;99.90;;;;;;4899266;29;20164;-85
2023/04/14 06:27:11;;;;;;;8.80;6.67;;;4.40;99.90;;;;;;4882377;29;20210;-85
2023/04/14 06:29:37;;;;;;;8.57;6.60;;;4.50;99.90;;;;;;4882106;29;20183;-85
2023/04/14 06:32:03;;;;;;;6.10;5.50;;;4.40;99.90;;;;;;4882673;29;20190;-85
2023/04/14 06:34:28;;;;;;;13.83;9.03;;;4.50;99.90;;;;;;4882518;29;20196;-85
2023/04/14 06:36:55;;;;;;;10.17;6.57;;;4.60;99.90;;;;;;4899028;29;20187;-85
2023/04/14 06:39:21;;;;;;;7.77;6.50;;;4.50;99.90;;;;;;4882393;29;20283;-85
2023/04/14 06:41:47;;;;;;;7.50;5.90;;;4.60;99.90;;;;;;4881748;29;20223;-84
2023/04/14 06:44:13;;;;;;;9.17;7.57;;;4.60;99.90;;;;;;4882031;29;20218;-84
2023/04/14 06:46:38;;;;;;;11.17;8.83;;;4.70;99.90;;;;;;4882340;29;20215;-85
2023/04/14 06:49:04;;;;;;;19.13;17.10;;;4.90;99.90;;;;;;4882019;29;20226;-84
2023/04/14 06:51:32;;;;;;;20.10;18.10;;;4.90;99.90;;;;;;4882084;29;20266;-84
2023/04/14 06:53:58;;;;;;;20.42;17.42;;;4.90;99.90;;;;;;4882102;29;20685;-84
2023/04/14 06:56:39;;;;;;;15.23;13.73;;;5.20;99.90;;;;;;4882052;29;20187;-84
2023/04/14 06:59:09;;;;;;;18.67;11.40;;;5.30;99.90;;;;;;4882910;29;20211;-87
2023/04/14 07:01:34;;;;;;;10.55;7.35;;;5.50;99.90;;;;;;4881859;29;20240;-86
2023/04/14 07:07:23;;;;;;;5.55;4.88;;;6.00;99.90;;;;;;4898491;29;20175;-87
2023/04/14 07:09:49;;;;;;;8.57;4.53;;;6.30;99.90;;;;;;4881763;29;20184;-87
2023/04/14 07:12:16;;;;;;;5.80;3.33;;;6.50;99.90;;;;;;4882823;29;20183;-87
2023/04/14 07:14:42;;;;;;;8.00;3.90;;;6.70;99.90;;;;;;4882723;29;20339;-87
2023/04/14 07:17:08;;;;;;;5.93;4.03;;;6.80;99.90;;;;;;4881570;29;20278;-88
2023/04/14 07:19:34;;;;;;;6.93;4.80;;;7.10;99.90;;;;;;4898693;29;20188;-87
2023/04/14 07:22:00;;;;;;;10.30;4.90;;;7.40;99.90;;;;;;4882346;29;20192;-86
2023/04/14 07:24:26;;;;;;;9.20;6.95;;;7.50;99.90;;;;;;4881727;29;20195;-88
2023/04/14 07:26:51;;;;;;;12.70;6.55;;;7.70;99.90;;;;;;4881599;29;20218;-87
2023/04/14 07:29:17;;;;;;;5.63;4.70;;;7.90;99.90;;;;;;4881440;29;20175;-87
2023/04/14 07:31:43;;;;;;;5.85;4.22;;;8.00;99.90;;;;;;4881693;29;20190;-87
2023/04/14 07:34:08;;;;;;;9.95;4.93;;;8.10;99.90;;;;;;4898377;29;20690;-87
2023/04/14 07:36:35;;;;;;;6.05;4.40;;;8.30;99.90;;;;;;4882225;29;20282;-88
2023/04/14 07:39:01;;;;;;;5.60;4.43;;;8.30;99.90;;;;;;4881730;29;20552;-87
2023/04/14 07:41:27;;;;;;;7.38;4.15;;;8.50;99.90;;;;;;4882169;29;20188;-87
2023/04/14 07:44:04;;;;;;;7.22;4.32;;;8.80;99.90;;;;;;4881630;29;20208;-87
2023/04/14 07:46:30;;;;;;;7.97;4.35;;;9.00;99.90;;;;;;4881238;29;20207;-87
2023/04/14 07:48:56;;;;;;;6.93;4.53;;;9.30;99.90;;;;;;4881546;29;20180;-87
2023/04/14 07:51:21;;;;;;;8.35;4.72;;;9.60;99.90;;;;;;4882111;29;20183;-87
2023/04/14 07:53:47;;;;;;;16.35;5.10;;;9.90;99.90;;;;;;4898287;29;20679;-88
2023/04/14 07:56:14;;;;;;;7.70;4.60;;;10.10;99.90;;;;;;4881985;29;20195;-87
2023/04/14 07:58:40;;;;;;;7.25;4.65;;;10.30;99.90;;;;;;4882898;29;20191;-87
2023/04/14 08:01:06;;;;;;;6.25;4.40;;;10.50;99.90;;;;;;4885319;29;20187;-87
2023/04/14 08:03:32;;;;;;;6.72;4.47;;;10.50;99.90;;;;;;4885153;29;20587;-87
2023/04/14 08:05:58;;;;;;;6.78;4.60;;;10.40;99.90;;;;;;4884983;29;20204;-87
2023/04/14 08:08:24;;;;;;;6.63;4.57;;;10.60;99.90;;;;;;4885037;29;20184;-87
2023/04/14 08:10:53;;;;;;;7.63;4.75;;;10.70;99.90;;;;;;4885867;29;20203;-87
2023/04/14 08:13:22;;;;;;;8.88;4.43;;;10.60;99.90;;;;;;4884119;29;20242;-87
2023/04/14 08:15:50;;;;;;;6.72;4.57;;;10.50;99.90;;;;;;4884662;29;20200;-87
2023/04/14 08:18:17;;;;;;;6.70;4.70;;;10.60;99.90;;;;;;4885473;29;20610;-90
2023/04/14 08:20:45;;;;;;;7.30;5.10;;;10.60;99.90;;;;;;4884933;29;20183;-90
2023/04/14 08:23:11;;;;;;;5.72;4.53;;;10.80;99.90;;;;;;4884443;29;20204;-87
2023/04/14 08:25:37;;;;;;;5.85;4.60;;;11.00;99.90;;;;;;4884234;29;20215;-88
2023/04/14 08:28:03;;;;;;;7.00;4.57;;;11.20;99.90;;;;;;4884610;29;20184;-88
2023/04/14 08:30:29;;;;;;;5.95;4.93;;;11.00;99.90;;;;;;4884627;29;20206;-88
2023/04/14 08:32:55;;;;;;;10.02;5.32;;;11.00;99.90;;;;;;4884366;29;20243;-88
2023/04/14 08:35:23;;;;;;;5.88;4.50;;;10.90;99.90;;;;;;4885380;29;20187;-88
2023/04/14 08:37:49;;;;;;;15.98;5.25;;;10.90;99.90;;;;;;4884188;29;20183;-88
2023/04/14 08:40:16;;;;;;;8.07;4.70;;;11.10;99.90;;;;;;4884409;29;20247;-88
2023/04/14 08:42:41;;;;;;;6.80;4.32;;;11.30;99.90;;;;;;4884279;29;20351;-86
2023/04/14 08:45:07;;;;;;;10.05;4.43;;;11.40;99.90;;;;;;4884361;29;20219;-89
2023/04/14 08:47:39;;;;;;;10.30;5.40;;;11.80;99.90;;;;;;4884300;29;20183;-88
2023/04/14 08:50:11;;;;;;;6.03;4.43;;;12.10;99.90;;;;;;4884925;29;20187;-87
2023/04/14 08:52:40;;;;;;;12.48;4.40;;;12.20;99.20;;;;;;4884361;29;20685;-91
2023/04/14 08:55:07;;;;;;;8.98;4.25;;;12.30;98.70;;;;;;4884567;29;20186;-87
2023/04/14 08:57:34;;;;;;;8.10;4.18;;;12.40;98.90;;;;;;4884888;29;20515;-87
2023/04/14 09:00:03;;;;;;;13.52;5.00;;;12.50;98.20;;;;;;4884013;29;20180;-88
2023/04/14 09:02:32;;;;;;;9.40;4.15;;;12.80;97.80;;;;;;4883834;29;20200;-87
2023/04/14 09:04:58;;;;;;;9.43;3.75;;;12.70;96.90;;;;;;4901383;29;20187;-88
2023/04/14 09:07:25;;;;;;;5.57;3.90;;;12.60;97.00;;;;;;4884278;29;20220;-88
2023/04/14 09:09:51;;;;;;;11.98;3.65;;;12.50;97.00;;;;;;4883604;29;20187;-88
2023/04/14 09:12:19;;;;;;;7.70;3.88;;;12.30;96.50;;;;;;4884004;29;20204;-87
2023/04/14 09:14:45;;;;;;;8.82;4.18;;;12.40;97.50;;;;;;4884096;29;20183;-88
2023/04/14 09:17:11;;;;;;;17.75;5.25;;;12.30;96.50;;;;;;4883858;29;20275;-88
2023/04/14 09:19:38;;;;;;;10.93;4.50;;;12.20;97.40;;;;;;4883918;29;20183;-88
2023/04/14 09:22:05;;;;;;;7.03;3.47;;;12.30;97.30;;;;;;4883349;29;20187;-87
2023/04/14 09:24:33;;;;;;;15.32;4.45;;;12.30;97.20;;;;;;4883463;29;20191;-87
2023/04/14 09:27:05;;;;;;;8.50;3.67;;;12.10;96.70;;;;;;4883457;29;20298;-87
2023/04/14 09:29:32;;;;;;;10.85;4.10;;;12.10;96.90;;;;;;4883428;29;20327;-88
2023/04/14 09:31:58;;;;;;;16.35;5.10;;;12.20;96.80;;;;;;4900256;29;20184;-88
2023/04/14 09:34:24;;;;;;;13.82;4.57;;;12.30;96.70;;;;;;4883272;29;20230;-87
2023/04/14 09:37:04;;;;;;;17.52;4.47;;;12.30;96.30;;;;;;4885414;29;20187;-88
2023/04/14 09:39:34;;;;;;;8.63;4.28;;;12.30;96.10;;;;;;4884990;29;20187;-88
2023/04/14 09:42:03;;;;;;;5.95;4.00;;;12.30;96.40;;;;;;4883236;29;20188;-87
2023/04/14 09:44:32;;;;;;;32.75;5.75;;;12.50;96.30;;;;;;4884000;29;20223;-88
2023/04/14 09:47:04;;;;;;;8.90;4.38;;;12.70;96.20;;;;;;4883390;29;20208;-88
2023/04/14 09:49:30;;;;;;;8.73;4.80;;;13.00;96.00;;;;;;4883578;29;20195;-88
2023/04/14 09:52:08;;;;;;;7.57;4.25;;;13.00;95.60;;;;;;4883463;29;20176;-86
2023/04/14 09:54:35;;;;;;;7.22;4.60;;;13.10;95.40;;;;;;4882850;29;20186;-87
2023/04/14 09:57:27;;;;;;;7.20;3.80;;;13.30;95.30;;;;;;4882864;29;20211;-88
2023/04/14 10:00:21;;;;;;;6.20;4.10;;;13.30;94.80;;;;;;4882851;29;20180;-88
2023/04/14 10:02:56;;;;;;;23.50;5.22;;;13.50;95.10;;;;;;4882678;29;20231;-88
2023/04/14 10:05:46;;;;;;;10.90;4.50;;;13.80;95.00;;;;;;4882598;29;20203;-88
2023/04/14 10:08:12;;;;;;;26.75;5.15;;;13.70;94.90;;;;;;4882611;29;20183;-88
2023/04/14 10:10:38;;;;;;;7.82;4.55;;;14.10;94.80;;;;;;4883490;29;20220;-88
2023/04/14 10:13:04;;;;;;;17.13;4.28;;;14.10;93.80;;;;;;4883090;29;20204;-87
2023/04/14 10:15:30;;;;;;;8.77;4.38;;;14.20;93.50;;;;;;4882494;29;20188;-88
2023/04/14 10:17:56;;;;;;;7.45;3.90;;;14.20;92.50;;;;;;4885570;29;20211;-84
2023/04/14 10:20:22;;;;;;;7.75;3.50;;;14.30;92.70;;;;;;4902455;29;20312;-88
2023/04/14 10:22:49;;;;;;;5.50;3.70;;;14.50;92.60;;;;;;4901180;29;20293;-87
2023/04/14 10:25:17;;;;;;;5.00;3.60;;;14.60;91.50;;;;;;4918405;29;20266;-87
2023/04/14 10:27:44;;;;;;;5.40;3.40;;;14.60;91.30;;;;;;4900811;29;20190;-87
2023/04/14 10:30:10;;;;;;;10.80;3.63;;;14.60;91.90;;;;;;4901678;29;20525;-88
2023/04/14 10:32:37;;;;;;;10.18;3.80;;;14.50;90.60;;;;;;4901047;29;20199;-87
2023/04/14 10:35:09;;;;;;;8.60;3.70;;;14.60;91.10;;;;;;4900632;29;20183;-88
2023/04/14 10:37:35;;;;;;;14.75;4.43;;;14.60;91.10;;;;;;4899951;29;20175;-88
2023/04/14 10:40:04;;;;;;;6.95;4.63;;;14.70;91.60;;;;;;4899088;29;20198;-88
2023/04/14 10:42:53;;;;;;;8.27;4.60;;;14.70;91.90;;;;;;4900497;29;20210;-88
2023/04/14 10:45:19;;;;;;;13.23;4.90;;;14.30;91.20;;;;;;4898977;29;20210;-88
2023/04/14 10:47:45;;;;;;;8.57;4.45;;;14.20;91.80;;;;;;4899449;29;20190;-86
2023/04/14 10:50:19;;;;;;;7.60;4.03;;;14.20;91.70;;;;;;4899249;29;20211;-86
2023/04/14 10:52:55;;;;;;;8.70;4.20;;;14.20;91.70;;;;;;4898877;29;20206;-86
2023/04/14 10:55:25;;;;;;;13.88;5.10;;;14.10;91.80;;;;;;4900941;29;20179;-85
2023/04/14 10:57:53;;;;;;;8.35;3.80;;;14.10;91.90;;;;;;4901985;29;20202;-86
2023/04/14 11:00:18;;;;;;;10.85;3.50;;;14.00;91.50;;;;;;4906382;29;20646;-86
2023/04/14 11:03:09;;;;;;;43.85;5.70;;;14.20;91.40;;;;;;4907186;29;20250;-86
2023/04/14 11:05:35;;;;;;;21.48;4.40;;;14.10;90.90;;;;;;4907272;29;20209;-86
2023/04/14 11:08:15;;;;;;;11.35;3.75;;;14.20;90.40;;;;;;4907468;29;20186;-86
2023/04/14 11:10:47;;;;;;;60.95;6.65;;;14.40;90.80;;;;;;4920873;29;20545;-86
2023/04/14 11:13:13;;;;;;;7.50;3.88;;;14.70;90.30;;;;;;4903798;29;20621;-88
2023/04/14 11:15:49;;;;;;;9.20;3.55;;;14.70;89.00;;;;;;4903998;29;20210;-85
2023/04/14 11:18:36;;;;;;;49.28;8.35;;;14.90;88.90;;;;;;4904971;29;20187;-85
2023/04/14 11:21:04;;;;;;;13.15;5.15;;;15.20;88.60;;;;;;4905279;29;20199;-86
2023/04/14 11:23:30;;;;;;;15.32;10.07;;;15.20;87.60;;;;;;4905858;29;20241;-86
2023/04/14 11:25:57;;;;;;;63.45;13.57;;;15.30;88.40;;;;;;4905632;29;20219;-86
2023/04/14 11:28:43;;;;;;;29.58;8.25;;;15.40;86.50;;;;;;4905465;29;20261;-84
2023/04/14 11:31:10;;;;;;;74.57;13.50;;;15.40;85.40;;;;;;4903541;29;20184;-85
2023/04/14 11:33:43;;;;;;;10.40;4.78;;;15.30;86.20;;;;;;4907536;29;20206;-85
2023/04/14 11:36:11;;;;;;;8.68;5.50;;;15.30;83.50;;;;;;4908374;29;20187;-85
2023/04/14 11:38:40;;;;;;;15.48;5.95;;;15.30;83.70;;;;;;4907884;29;20207;-85
2023/04/14 11:41:06;;;;;;;11.10;3.63;;;15.30;84.30;;;;;;4904947;29;20186;-85
2023/04/14 11:43:32;;;;;;;113.57;13.70;;;15.20;86.40;;;;;;4904576;29;20678;-86
2023/04/14 11:46:02;;;;;;;66.72;9.80;;;15.40;83.70;;;;;;4903909;29;20323;-86
2023/04/14 11:48:29;;;;;;;15.45;3.65;;;15.40;83.40;;;;;;4903999;29;20175;-86
2023/04/14 11:51:01;;;;;;;23.33;4.90;;;15.50;82.90;;;;;;4903483;29;20230;-86
2023/04/14 11:53:27;;;;;;;48.15;5.90;;;15.40;82.70;;;;;;4904374;29;20258;-86
2023/04/14 11:55:53;;;;;;;11.45;3.42;;;15.70;81.90;;;;;;4903959;29;20190;-86
2023/04/14 11:58:23;;;;;;;33.83;5.35;;;16.00;80.30;;;;;;4903802;29;20207;-86
2023/04/14 12:00:50;;;;;;;10.95;3.90;;;16.30;79.70;;;;;;4903403;29;20187;-86
2023/04/14 12:03:15;;;;;;;3.88;2.97;;;16.40;79.50;;;;;;4903948;29;20293;-86
2023/04/14 12:05:41;;;;;;;4.35;2.70;;;16.40;80.90;;;;;;4903230;29;20293;-86
2023/04/14 12:08:08;;;;;;;9.13;3.40;;;16.50;79.50;;;;;;4903173;29;20233;-86
2023/04/14 12:10:35;;;;;;;17.23;3.63;;;16.50;78.30;;;;;;4903629;29;20596;-86
2023/04/14 12:13:02;;;;;;;3.05;2.75;;;16.50;79.40;;;;;;4903344;29;20670;-86
2023/04/14 12:15:32;;;;;;;8.27;2.92;;;16.10;78.00;;;;;;4920330;29;20186;-85
2023/04/14 12:17:58;;;;;;;4.20;2.60;;;15.70;82.40;;;;;;4903223;29;20191;-86
2023/04/14 12:20:26;;;;;;;15.43;3.53;;;15.30;81.50;;;;;;4903402;29;20650;-86
2023/04/14 12:22:59;;;;;;;67.90;4.97;;;14.90;82.00;;;;;;4903556;29;20681;-86
2023/04/14 12:25:25;;;;;;;31.38;4.20;;;15.00;81.70;;;;;;4903727;29;20214;-87
2023/04/14 12:27:52;;;;;;;8.23;3.10;;;14.90;81.70;;;;;;4903053;29;20564;-86
2023/04/14 12:30:21;;;;;;;8.90;2.50;;;15.10;82.00;;;;;;4903163;29;20206;-86
2023/04/14 12:32:46;;;;;;;7.40;2.33;;;15.20;83.20;;;;;;4920884;29;20206;-86
2023/04/14 12:35:12;;;;;;;5.47;2.60;;;15.20;80.50;;;;;;4903906;29;20182;-85
2023/04/14 12:37:40;;;;;;;5.75;2.50;;;14.80;81.10;;;;;;4903797;29;20214;-86
2023/04/14 12:40:06;;;;;;;8.40;2.42;;;14.90;79.30;;;;;;4903076;29;20179;-85
2023/04/14 12:43:01;;;;;;;5.38;2.33;;;15.10;78.30;;;;;;4904024;29;20195;-85
2023/04/14 12:45:39;;;;;;;14.30;2.13;;;15.40;77.80;;;;;;4886971;29;20225;-87
2023/04/14 12:48:50;;;;;;;23.17;2.60;;;15.40;78.10;;;;;;4902887;29;20179;-88
2023/04/14 12:51:23;;;;;;;5.63;2.13;;;15.50;77.20;;;;;;4903365;29;20178;-87
2023/04/14 12:53:50;;;;;;;11.85;2.88;;;15.40;77.10;;;;;;4902545;29;20199;-87
2023/04/14 12:56:18;;;;;;;4.70;2.00;;;15.10;76.60;;;;;;4902649;29;20183;-87
2023/04/14 12:58:45;;;;;;;26.52;2.95;;;15.00;78.00;;;;;;4902617;29;20273;-87
2023/04/14 13:01:12;;;;;;;11.05;2.47;;;15.10;76.40;;;;;;4902780;29;20239;-87
2023/04/14 13:03:49;;;;;;;10.93;2.63;;;15.20;76.50;;;;;;4902778;29;20203;-87
2023/04/14 13:06:16;;;;;;;24.50;4.28;;;15.30;76.40;;;;;;4902207;29;20741;-87
2023/04/14 13:08:47;;;;;;;42.92;6.53;;;15.50;75.30;;;;;;4903215;29;20637;-87
2023/04/14 13:11:14;;;;;;;10.38;2.50;;;15.50;76.10;;;;;;4903310;29;20179;-87
2023/04/14 13:13:40;;;;;;;6.10;2.00;;;15.40;74.20;;;;;;4902627;29;20213;-87
2023/04/14 13:16:06;;;;;;;1.98;1.63;;;15.50;75.60;;;;;;4902424;29;20183;-87
2023/04/14 13:18:31;;;;;;;4.90;2.00;;;15.50;74.10;;;;;;4902390;29;20645;-87
2023/04/14 13:20:57;;;;;;;70.55;6.40;;;15.60;74.30;;;;;;4902236;29;20191;-87
2023/04/14 13:23:23;;;;;;;18.80;2.72;;;15.80;75.60;;;;;;4901869;29;20202;-87
2023/04/14 13:25:49;;;;;;;6.22;1.60;;;15.90;74.80;;;;;;4902530;29;20210;-87
2023/04/14 13:28:15;;;;;;;13.25;2.33;;;15.90;70.40;;;;;;4902275;29;20198;-87
2023/04/14 13:30:42;;;;;;;8.15;2.25;;;16.10;70.80;;;;;;4902151;29;20670;-87
2023/04/14 13:33:08;;;;;;;7.88;1.90;;;16.10;70.00;;;;;;4902071;29;20670;-87
2023/04/14 13:35:34;;;;;;;6.50;2.00;;;15.90;70.70;;;;;;4901638;29;20183;-87
2023/04/14 13:38:03;;;;;;;3.28;2.08;;;15.70;72.30;;;;;;4901868;29;20187;-87
2023/04/14 13:40:29;;;;;;;2.28;1.80;;;15.60;74.80;;;;;;4902444;29;20179;-87
2023/04/14 13:42:58;;;;;;;5.38;1.90;;;15.80;74.90;;;;;;4901486;29;20209;-87
2023/04/14 13:45:23;;;;;;;4.15;1.88;;;15.70;73.40;;;;;;4901831;29;20186;-87
2023/04/14 13:47:49;;;;;;;4.28;1.92;;;15.70;71.40;;;;;;4901988;29;20239;-87
2023/04/14 13:50:16;;;;;;;9.20;2.20;;;15.70;72.30;;;;;;4918922;29;20298;-87
2023/04/14 13:52:42;;;;;;;3.83;2.10;;;16.00;72.80;;;;;;4901245;29;20203;-87
2023/04/14 13:55:08;;;;;;;3.33;2.22;;;16.20;71.90;;;;;;4901555;29;20182;-87
2023/04/14 13:57:34;;;;;;;3.28;2.03;;;16.30;73.50;;;;;;4900902;29;20186;-87
2023/04/14 14:00:00;;;;;;;3.70;2.10;;;16.10;74.10;;;;;;4902162;29;20171;-87
2023/04/14 14:02:26;;;;;;;2.20;2.00;;;16.10;74.50;;;;;;4901786;29;20685;-87
2023/04/14 14:04:51;;;;;;;2.78;2.25;;;15.60;73.90;;;;;;4901070;29;20175;-87
2023/04/14 14:07:25;;;;;;;2.75;2.30;;;15.50;76.00;;;;;;4901171;29;20213;-87
2023/04/14 14:09:50;;;;;;;4.70;2.00;;;14.90;75.50;;;;;;4901137;29;20217;-87
2023/04/14 14:12:16;;;;;;;5.07;2.13;;;14.80;76.40;;;;;;4901308;29;20203;-87
2023/04/14 14:14:42;;;;;;;23.60;3.20;;;14.90;77.70;;;;;;4901193;29;20175;-87
2023/04/14 14:17:13;;;;;;;8.75;2.47;;;15.10;77.70;;;;;;4902378;29;20179;-89
2023/04/14 14:19:39;;;;;;;6.53;2.15;;;15.10;76.80;;;;;;4901096;29;20183;-89
2023/04/14 14:22:06;;;;;;;4.10;1.80;;;15.10;76.40;;;;;;4901271;29;20204;-89